Airfield :
LOGIN :

Register | Disclaimer

   EN    FR    IT 

 










Legend :    VFR   Marginal VFR   IFR   Intensive IFR   Very Intensive IFR
Visi :
Ceiling :
>= 8 km
>= 3000ft
5 to 8 km
1000 to 3000 ft
1500m to 5 km
500 to 1000 ft
800 to 1500m
200 to 500 ft
< 800m
< 200 ft
Symbols :   Thunderstorms  Fog  Heavy snow  Heavy precipitations  Wind > 20 kt
SIGMETs :     Misc.  Thunderstorms  Icing  Turbulence  Mountain Waves  Volcanic Ashes






- Airport Elevation : 1071 ft
- IATA code : LWO


UKLL - L'viv

CURRENT METAR :
  • 171930Z 21002MPS CAVOK 06/00 Q1018 R31/CLRD// NOSIG

EXPIRED METARs :
  • 171900Z 14002MPS CAVOK 07/00 Q1018 R31/CLRD// NOSIG
  • 171830Z 23001MPS CAVOK 08/M00 Q1018 R31/CLRD// NOSIG
  • 171800Z 25002MPS 220V280 CAVOK 09/M00 Q1018 R31/D NOSIG
  • 171730Z 22002MPS 190V250 CAVOK 09/00 Q1018 R31/D NOSIG
  • 171700Z 24003MPS CAVOK 09/00 Q1018 R13/D NOSIG

TAF TAF UKLL
Valid from the 17 at 18:00 until the 18 at 18:00 UTC


171702Z 1718/1818 24005MPS 4000 BR BKN010 TX08/1812Z TN03/1803Z
TEMPO 1721/1802 2100 -SHRA BKN007 BKN020CB
BECMG 1802/1803 27005G10MPS
TEMPO 1803/1809 1100 SHRA BKN004 BKN016CB
TEMPO 1809/1818 2100 -SHRA BKN007 BKN018CB



MET'MAP, your aeronautical weather chart ! - Copyright ORBIFLY December 2007 - Disclaimer

ORBIFLY MET'MAP TEAM :

Programming & Development : Alexandra Zaïnal
Concept & original design : Baudouin d'Aumeries
Assistance for programming : Marc-Olivier Méhu
Technical & hardware support : Manuel Goepfert

Contact : metmap@orbifly.com




SOURCES & CREDITS :

   NOAA